GIA253 WADD-WAHI
Flight info
| Callsign | GIA253 |
|---|---|
| Flight time | 1h 6m |
| Altitude | 38000 |
| Route | OKANG DCT SBR W16 LASEM W52 ANY W17N SO |
| Aircraft | B738/M-SDE2E3FGHIRWXY/LB1 |
Departure
| Time | 2026-04-26 11:25 |
|---|---|
| Airport | Denpasar I Gusti Ngurah Rai International Airport (WADD) |
Arrival
| Time | 2026-04-26 12:31 |
|---|---|
| Airport | Yogyakarta International Airport (WAHI) |
| Time | Latitude | Longitude | Altitude | Speed | Heading |
|---|---|---|---|---|---|
| 2026-04-26 11:13 | -8.74579 | 115.16408 | 24 ft | 0 kts | 358° |
| 2026-04-26 11:15 | -8.74591 | 115.16409 | 24 ft | 2 kts | 358° |
| 2026-04-26 11:16 | -8.74606 | 115.16409 | 23 ft | 2 kts | 358° |
| 2026-04-26 11:16 | -8.74621 | 115.16409 | 23 ft | 2 kts | 358° |
| 2026-04-26 11:16 | -8.74636 | 115.16410 | 23 ft | 2 kts | 358° |
| 2026-04-26 11:16 | -8.74650 | 115.16411 | 23 ft | 2 kts | 358° |
| 2026-04-26 11:17 | -8.74665 | 115.16411 | 22 ft | 2 kts | 358° |
| 2026-04-26 11:17 | -8.74674 | 115.16412 | 22 ft | 2 kts | 355° |
| 2026-04-26 11:17 | -8.74688 | 115.16416 | 22 ft | 2 kts | 327° |
| 2026-04-26 11:17 | -8.74699 | 115.16426 | 22 ft | 2 kts | 304° |
| 2026-04-26 11:18 | -8.74705 | 115.16440 | 22 ft | 2 kts | 282° |
| 2026-04-26 11:18 | -8.74707 | 115.16448 | 22 ft | 0 kts | 269° |
| 2026-04-26 11:18 | -8.74706 | 115.16455 | 22 ft | 0 kts | 266° |
| 2026-04-26 11:20 | -8.74708 | 115.16421 | 22 ft | 6 kts | 268° |
| 2026-04-26 11:20 | -8.74709 | 115.16363 | 22 ft | 10 kts | 265° |
| 2026-04-26 11:21 | -8.74714 | 115.16276 | 20 ft | 14 kts | 268° |
| 2026-04-26 11:21 | -8.74719 | 115.16160 | 19 ft | 17 kts | 267° |
| 2026-04-26 11:21 | -8.74728 | 115.16003 | 16 ft | 26 kts | 269° |
| 2026-04-26 11:21 | -8.74736 | 115.15817 | 16 ft | 27 kts | 264° |
| 2026-04-26 11:22 | -8.74744 | 115.15608 | 16 ft | 31 kts | 268° |
| 2026-04-26 11:22 | -8.74752 | 115.15455 | 16 ft | 7 kts | 265° |
| 2026-04-26 11:22 | -8.74764 | 115.15421 | 16 ft | 3 kts | 232° |
| 2026-04-26 11:22 | -8.74777 | 115.15408 | 16 ft | 1 kts | 216° |
| 2026-04-26 11:23 | -8.74783 | 115.15404 | 16 ft | 0 kts | 207° |
| 2026-04-26 11:23 | -8.74789 | 115.15403 | 16 ft | 2 kts | 195° |
| 2026-04-26 11:23 | -8.74815 | 115.15401 | 16 ft | 5 kts | 179° |
| 2026-04-26 11:23 | -8.74873 | 115.15403 | 16 ft | 11 kts | 174° |
| 2026-04-26 11:24 | -8.74917 | 115.15427 | 16 ft | 5 kts | 102° |
| 2026-04-26 11:24 | -8.74914 | 115.15489 | 16 ft | 31 kts | 87° |
| 2026-04-26 11:24 | -8.74890 | 115.16031 | 16 ft | 119 kts | 88° |
| 2026-04-26 11:24 | -8.74838 | 115.17095 | 141 ft | 177 kts | 88° |
| 2026-04-26 11:25 | -8.74728 | 115.18329 | 1153 ft | 177 kts | 84° |
| 2026-04-26 11:25 | -8.74639 | 115.19504 | 2086 ft | 171 kts | 92° |
| 2026-04-26 11:25 | -8.74670 | 115.20776 | 2546 ft | 194 kts | 90° |
| 2026-04-26 11:25 | -8.74628 | 115.22199 | 3041 ft | 213 kts | 88° |
| 2026-04-26 11:26 | -8.74569 | 115.23807 | 3329 ft | 247 kts | 88° |
| 2026-04-26 11:26 | -8.74500 | 115.25574 | 4294 ft | 256 kts | 88° |
| 2026-04-26 11:26 | -8.74426 | 115.27389 | 5200 ft | 267 kts | 87° |
| 2026-04-26 11:26 | -8.74350 | 115.29253 | 6252 ft | 271 kts | 87° |
| 2026-04-26 11:27 | -8.74165 | 115.31136 | 7185 ft | 278 kts | 74° |
| 2026-04-26 11:27 | -8.73189 | 115.32812 | 8157 ft | 283 kts | 42° |
| 2026-04-26 11:27 | -8.71468 | 115.33710 | 9119 ft | 287 kts | 11° |
| 2026-04-26 11:27 | -8.69482 | 115.33755 | 10118 ft | 290 kts | 355° |
| 2026-04-26 11:28 | -8.67492 | 115.33295 | 10612 ft | 312 kts | 336° |
| 2026-04-26 11:28 | -8.65734 | 115.31898 | 10957 ft | 336 kts | 309° |
| 2026-04-26 11:28 | -8.64389 | 115.29900 | 11387 ft | 355 kts | 303° |
| 2026-04-26 11:28 | -8.62978 | 115.27749 | 11591 ft | 378 kts | 305° |
| 2026-04-26 11:29 | -8.61448 | 115.25575 | 12334 ft | 383 kts | 307° |
| 2026-04-26 11:29 | -8.59852 | 115.23363 | 12838 ft | 394 kts | 307° |
| 2026-04-26 11:29 | -8.58251 | 115.21157 | 13699 ft | 394 kts | 307° |
| 2026-04-26 11:29 | -8.56613 | 115.18908 | 14286 ft | 401 kts | 307° |
| 2026-04-26 11:30 | -8.54963 | 115.16649 | 15031 ft | 402 kts | 307° |
| 2026-04-26 11:30 | -8.53853 | 115.15131 | 15445 ft | 406 kts | 307° |
| 2026-04-26 11:30 | -8.51607 | 115.12064 | 16292 ft | 411 kts | 307° |
| 2026-04-26 11:30 | -8.49899 | 115.09736 | 16902 ft | 415 kts | 307° |
| 2026-04-26 11:31 | -8.48191 | 115.07407 | 17491 ft | 418 kts | 307° |
| 2026-04-26 11:31 | -8.46455 | 115.05043 | 18070 ft | 422 kts | 307° |
| 2026-04-26 11:31 | -8.44689 | 115.02638 | 18634 ft | 425 kts | 307° |
| 2026-04-26 11:31 | -8.42940 | 115.00258 | 19183 ft | 428 kts | 307° |
| 2026-04-26 11:32 | -8.41163 | 114.97839 | 19714 ft | 432 kts | 307° |
| 2026-04-26 11:32 | -8.39373 | 114.95404 | 20245 ft | 435 kts | 307° |
| 2026-04-26 11:32 | -8.37561 | 114.92939 | 20746 ft | 438 kts | 307° |
| 2026-04-26 11:32 | -8.35745 | 114.90469 | 21240 ft | 441 kts | 307° |
| 2026-04-26 11:33 | -8.33924 | 114.87993 | 21717 ft | 444 kts | 307° |
| 2026-04-26 11:33 | -8.32067 | 114.85468 | 22179 ft | 447 kts | 307° |
| 2026-04-26 11:33 | -8.30216 | 114.82952 | 22628 ft | 449 kts | 307° |
| 2026-04-26 11:33 | -8.28370 | 114.80443 | 23053 ft | 452 kts | 307° |
| 2026-04-26 11:34 | -8.26482 | 114.77877 | 23478 ft | 455 kts | 307° |
| 2026-04-26 11:34 | -8.24587 | 114.75301 | 23885 ft | 457 kts | 307° |
| 2026-04-26 11:34 | -8.22709 | 114.72751 | 24283 ft | 460 kts | 307° |
| 2026-04-26 11:34 | -8.20783 | 114.70135 | 24674 ft | 463 kts | 307° |
| 2026-04-26 11:35 | -8.18879 | 114.67550 | 25047 ft | 465 kts | 307° |
| 2026-04-26 11:35 | -8.16925 | 114.64896 | 25420 ft | 467 kts | 307° |
| 2026-04-26 11:35 | -8.15008 | 114.62293 | 25763 ft | 470 kts | 307° |
| 2026-04-26 11:35 | -8.13044 | 114.59629 | 26115 ft | 472 kts | 307° |
| 2026-04-26 11:36 | -8.11101 | 114.56992 | 26436 ft | 475 kts | 307° |
| 2026-04-26 11:36 | -8.09125 | 114.54310 | 26764 ft | 477 kts | 307° |
| 2026-04-26 11:36 | -8.07137 | 114.51614 | 27070 ft | 479 kts | 307° |
| 2026-04-26 11:36 | -8.05152 | 114.48920 | 27388 ft | 481 kts | 307° |
| 2026-04-26 11:37 | -8.03161 | 114.46221 | 27735 ft | 481 kts | 307° |
| 2026-04-26 11:37 | -8.01157 | 114.43504 | 28096 ft | 482 kts | 308° |
| 2026-04-26 11:37 | -7.99176 | 114.40819 | 28483 ft | 482 kts | 308° |
| 2026-04-26 11:37 | -7.97187 | 114.38123 | 28880 ft | 481 kts | 308° |
| 2026-04-26 11:38 | -7.95187 | 114.35413 | 29273 ft | 481 kts | 308° |
| 2026-04-26 11:38 | -7.93183 | 114.32697 | 29680 ft | 480 kts | 308° |
| 2026-04-26 11:38 | -7.91200 | 114.30010 | 30072 ft | 479 kts | 308° |
| 2026-04-26 11:38 | -7.89224 | 114.27335 | 30468 ft | 478 kts | 308° |
| 2026-04-26 11:39 | -7.87248 | 114.24659 | 30854 ft | 478 kts | 308° |
| 2026-04-26 11:39 | -7.85278 | 114.21993 | 31242 ft | 477 kts | 308° |
| 2026-04-26 11:39 | -7.83289 | 114.19301 | 31626 ft | 476 kts | 308° |
| 2026-04-26 11:39 | -7.81333 | 114.16654 | 31997 ft | 475 kts | 308° |
| 2026-04-26 11:40 | -7.79378 | 114.14008 | 32367 ft | 474 kts | 308° |
| 2026-04-26 11:40 | -7.77472 | 114.11280 | 32722 ft | 474 kts | 303° |
| 2026-04-26 11:40 | -7.75820 | 114.08411 | 33083 ft | 474 kts | 298° |
| 2026-04-26 11:40 | -7.74485 | 114.05383 | 33416 ft | 474 kts | 290° |
| 2026-04-26 11:41 | -7.73508 | 114.02240 | 33794 ft | 473 kts | 287° |
| 2026-04-26 11:42 | -7.67142 | 113.80125 | 36049 ft | 467 kts | 287° |
| 2026-04-26 11:43 | -7.66238 | 113.76987 | 36322 ft | 467 kts | 287° |
| 2026-04-26 11:43 | -7.65338 | 113.73861 | 36587 ft | 467 kts | 287° |
| 2026-04-26 11:43 | -7.64424 | 113.70687 | 36836 ft | 467 kts | 287° |
| 2026-04-26 11:43 | -7.63533 | 113.67590 | 37089 ft | 466 kts | 287° |
| 2026-04-26 11:44 | -7.62632 | 113.64463 | 37335 ft | 466 kts | 287° |
| 2026-04-26 11:44 | -7.61726 | 113.61317 | 37584 ft | 466 kts | 287° |
| 2026-04-26 11:44 | -7.60826 | 113.58192 | 37804 ft | 466 kts | 287° |
| 2026-04-26 11:44 | -7.59927 | 113.55074 | 37846 ft | 466 kts | 287° |
| 2026-04-26 11:45 | -7.58134 | 113.48850 | 37831 ft | 461 kts | 287° |
| 2026-04-26 11:45 | -7.56351 | 113.42667 | 37831 ft | 459 kts | 287° |
| 2026-04-26 11:46 | -7.54570 | 113.36498 | 37831 ft | 460 kts | 287° |
| 2026-04-26 11:46 | -7.52793 | 113.30343 | 37831 ft | 460 kts | 287° |
| 2026-04-26 11:47 | -7.50999 | 113.24132 | 37831 ft | 460 kts | 287° |
| 2026-04-26 11:47 | -7.49214 | 113.17954 | 37831 ft | 460 kts | 287° |
| 2026-04-26 11:48 | -7.47433 | 113.11798 | 37831 ft | 460 kts | 287° |
| 2026-04-26 11:48 | -7.45645 | 113.05617 | 37831 ft | 460 kts | 287° |
| 2026-04-26 11:49 | -7.43856 | 112.99442 | 37831 ft | 461 kts | 287° |
| 2026-04-26 11:49 | -7.42071 | 112.93282 | 37831 ft | 462 kts | 287° |
| 2026-04-26 11:50 | -7.40258 | 112.87032 | 37831 ft | 464 kts | 287° |
| 2026-04-26 11:50 | -7.38415 | 112.80846 | 37830 ft | 465 kts | 289° |
| 2026-04-26 11:51 | -7.35815 | 112.74883 | 37830 ft | 464 kts | 302° |
| 2026-04-26 11:51 | -7.32329 | 112.69456 | 37831 ft | 464 kts | 304° |
| 2026-04-26 11:52 | -7.28804 | 112.64008 | 37831 ft | 464 kts | 304° |
| 2026-04-26 11:52 | -7.25312 | 112.58626 | 37831 ft | 464 kts | 304° |
| 2026-04-26 11:53 | -7.21785 | 112.53204 | 37831 ft | 464 kts | 304° |
| 2026-04-26 11:54 | -7.16484 | 112.45068 | 37831 ft | 464 kts | 304° |
| 2026-04-26 11:54 | -7.12953 | 112.39654 | 37831 ft | 464 kts | 304° |
| 2026-04-26 11:55 | -7.09430 | 112.34256 | 37831 ft | 464 kts | 304° |
| 2026-04-26 11:55 | -7.05909 | 112.28863 | 37831 ft | 464 kts | 304° |
| 2026-04-26 11:56 | -7.02463 | 112.23398 | 37824 ft | 464 kts | 296° |
| 2026-04-26 11:56 | -7.01497 | 112.20310 | 37825 ft | 464 kts | 277° |
| 2026-04-26 11:56 | -7.01550 | 112.17093 | 37841 ft | 464 kts | 262° |
| 2026-04-26 11:57 | -7.02490 | 112.10648 | 37830 ft | 466 kts | 262° |
| 2026-04-26 11:57 | -7.03320 | 112.04221 | 37830 ft | 465 kts | 262° |
| 2026-04-26 11:58 | -7.04155 | 111.97753 | 37830 ft | 464 kts | 262° |
| 2026-04-26 11:58 | -7.04981 | 111.91324 | 37830 ft | 465 kts | 262° |
| 2026-04-26 11:59 | -7.05801 | 111.84911 | 37830 ft | 465 kts | 262° |
| 2026-04-26 11:59 | -7.06624 | 111.78468 | 37831 ft | 465 kts | 262° |
| 2026-04-26 12:00 | -7.07443 | 111.72038 | 37830 ft | 465 kts | 262° |
| 2026-04-26 12:00 | -7.08267 | 111.65568 | 37831 ft | 465 kts | 262° |
| 2026-04-26 12:01 | -7.09084 | 111.59138 | 37831 ft | 465 kts | 262° |
| 2026-04-26 12:01 | -7.09900 | 111.52706 | 37830 ft | 465 kts | 262° |
| 2026-04-26 12:02 | -7.10714 | 111.46283 | 37854 ft | 464 kts | 262° |
| 2026-04-26 12:02 | -7.11531 | 111.39837 | 37858 ft | 465 kts | 262° |
| 2026-04-26 12:03 | -7.12344 | 111.33405 | 37857 ft | 465 kts | 263° |
| 2026-04-26 12:03 | -7.13160 | 111.26949 | 37858 ft | 465 kts | 262° |
| 2026-04-26 12:04 | -7.13975 | 111.20496 | 37858 ft | 465 kts | 263° |
| 2026-04-26 12:04 | -7.14783 | 111.14078 | 37858 ft | 465 kts | 262° |
| 2026-04-26 12:05 | -7.15599 | 111.07606 | 37857 ft | 465 kts | 263° |
| 2026-04-26 12:05 | -7.16408 | 111.01170 | 37858 ft | 466 kts | 263° |
| 2026-04-26 12:06 | -7.17223 | 110.94685 | 37857 ft | 466 kts | 263° |
| 2026-04-26 12:06 | -7.18031 | 110.88217 | 37857 ft | 467 kts | 263° |
| 2026-04-26 12:07 | -7.19504 | 110.81943 | 37851 ft | 466 kts | 243° |
| 2026-04-26 12:07 | -7.21299 | 110.79234 | 37857 ft | 465 kts | 226° |
| 2026-04-26 12:07 | -7.23740 | 110.77161 | 37864 ft | 463 kts | 211° |
| 2026-04-26 12:07 | -7.26617 | 110.75700 | 37861 ft | 462 kts | 198° |
| 2026-04-26 12:08 | -7.29716 | 110.75001 | 37857 ft | 459 kts | 183° |
| 2026-04-26 12:08 | -7.36038 | 110.74878 | 37858 ft | 458 kts | 179° |
| 2026-04-26 12:09 | -7.42376 | 110.74749 | 37741 ft | 453 kts | 182° |
| 2026-04-26 12:09 | -7.45522 | 110.74435 | 37063 ft | 452 kts | 188° |
| 2026-04-26 12:09 | -7.48528 | 110.73637 | 36376 ft | 453 kts | 200° |
| 2026-04-26 12:09 | -7.51381 | 110.72307 | 35656 ft | 453 kts | 206° |
| 2026-04-26 12:10 | -7.54094 | 110.70720 | 34871 ft | 458 kts | 213° |
| 2026-04-26 12:10 | -7.56573 | 110.68677 | 34043 ft | 465 kts | 224° |
| 2026-04-26 12:10 | -7.58722 | 110.66286 | 33198 ft | 466 kts | 229° |
| 2026-04-26 12:10 | -7.60808 | 110.63824 | 32322 ft | 466 kts | 229° |
| 2026-04-26 12:11 | -7.62917 | 110.61366 | 31424 ft | 467 kts | 228° |
| 2026-04-26 12:11 | -7.65049 | 110.58897 | 30493 ft | 471 kts | 228° |
| 2026-04-26 12:11 | -7.67189 | 110.56423 | 29525 ft | 473 kts | 228° |
| 2026-04-26 12:11 | -7.69346 | 110.53927 | 28513 ft | 473 kts | 228° |
| 2026-04-26 12:12 | -7.71476 | 110.51459 | 27475 ft | 475 kts | 228° |
| 2026-04-26 12:12 | -7.73618 | 110.48904 | 26363 ft | 481 kts | 231° |
| 2026-04-26 12:12 | -7.75570 | 110.46199 | 25201 ft | 481 kts | 236° |
| 2026-04-26 12:12 | -7.76710 | 110.44259 | 24394 ft | 482 kts | 242° |
| 2026-04-26 12:13 | -7.78323 | 110.40122 | 23128 ft | 473 kts | 252° |
| 2026-04-26 12:13 | -7.79130 | 110.36965 | 22373 ft | 463 kts | 259° |
| 2026-04-26 12:13 | -7.79602 | 110.33786 | 21540 ft | 456 kts | 264° |
| 2026-04-26 12:13 | -7.79726 | 110.30632 | 20924 ft | 447 kts | 272° |
| 2026-04-26 12:14 | -7.79473 | 110.27532 | 20867 ft | 451 kts | 276° |
| 2026-04-26 12:14 | -7.79129 | 110.24339 | 20847 ft | 456 kts | 276° |
| 2026-04-26 12:14 | -7.78795 | 110.21245 | 20295 ft | 446 kts | 276° |
| 2026-04-26 12:14 | -7.78451 | 110.18095 | 19507 ft | 449 kts | 276° |
| 2026-04-26 12:15 | -7.78112 | 110.15045 | 18717 ft | 441 kts | 276° |
| 2026-04-26 12:15 | -7.77768 | 110.11974 | 18131 ft | 436 kts | 276° |
| 2026-04-26 12:15 | -7.77429 | 110.08980 | 17381 ft | 434 kts | 276° |
| 2026-04-26 12:15 | -7.77234 | 110.05986 | 16591 ft | 425 kts | 267° |
| 2026-04-26 12:16 | -7.77706 | 110.03093 | 15800 ft | 417 kts | 253° |
| 2026-04-26 12:16 | -7.78839 | 110.00414 | 15099 ft | 413 kts | 238° |
| 2026-04-26 12:16 | -7.80586 | 109.98153 | 14964 ft | 412 kts | 224° |
| 2026-04-26 12:16 | -7.82834 | 109.96389 | 14961 ft | 416 kts | 210° |
| 2026-04-26 12:17 | -7.85487 | 109.95225 | 14967 ft | 414 kts | 197° |
| 2026-04-26 12:17 | -7.88256 | 109.94460 | 14965 ft | 414 kts | 193° |
| 2026-04-26 12:17 | -7.91033 | 109.93735 | 14960 ft | 413 kts | 194° |
| 2026-04-26 12:17 | -7.93396 | 109.93104 | 14612 ft | 401 kts | 194° |
| 2026-04-26 12:18 | -7.93909 | 109.92966 | 14457 ft | 402 kts | 194° |
| 2026-04-26 12:18 | -7.96598 | 109.92246 | 13715 ft | 406 kts | 194° |
| 2026-04-26 12:18 | -7.99288 | 109.91527 | 13084 ft | 395 kts | 194° |
| 2026-04-26 12:19 | -8.01870 | 109.90836 | 12881 ft | 373 kts | 194° |
| 2026-04-26 12:19 | -8.04332 | 109.90180 | 12562 ft | 358 kts | 194° |
| 2026-04-26 12:19 | -8.06640 | 109.89572 | 12050 ft | 338 kts | 194° |
| 2026-04-26 12:19 | -8.08861 | 109.88988 | 11549 ft | 321 kts | 194° |
| 2026-04-26 12:20 | -8.10947 | 109.88438 | 11056 ft | 307 kts | 194° |
| 2026-04-26 12:20 | -8.12993 | 109.87917 | 10550 ft | 295 kts | 189° |
| 2026-04-26 12:20 | -8.14963 | 109.87870 | 10053 ft | 284 kts | 168° |
| 2026-04-26 12:20 | -8.16744 | 109.88623 | 9554 ft | 278 kts | 143° |
| 2026-04-26 12:21 | -8.18088 | 109.90018 | 9073 ft | 280 kts | 122° |
| 2026-04-26 12:21 | -8.18859 | 109.91830 | 8573 ft | 281 kts | 104° |
| 2026-04-26 12:21 | -8.19266 | 109.93754 | 8077 ft | 283 kts | 101° |
| 2026-04-26 12:21 | -8.19545 | 109.95702 | 7571 ft | 284 kts | 89° |
| 2026-04-26 12:22 | -8.19085 | 109.97618 | 7060 ft | 284 kts | 61° |
| 2026-04-26 12:22 | -8.17802 | 109.99109 | 6565 ft | 285 kts | 36° |
| 2026-04-26 12:22 | -8.16022 | 109.99965 | 6071 ft | 286 kts | 15° |
| 2026-04-26 12:22 | -8.14083 | 110.00399 | 5577 ft | 286 kts | 11° |
| 2026-04-26 12:23 | -8.12129 | 110.00479 | 5066 ft | 287 kts | 350° |
| 2026-04-26 12:23 | -8.10299 | 109.99705 | 4569 ft | 287 kts | 329° |
| 2026-04-26 12:23 | -8.08616 | 109.98640 | 4078 ft | 287 kts | 329° |
| 2026-04-26 12:23 | -8.06908 | 109.97617 | 3576 ft | 286 kts | 330° |
| 2026-04-26 12:24 | -8.05212 | 109.96603 | 3096 ft | 284 kts | 330° |
| 2026-04-26 12:24 | -8.03561 | 109.95609 | 2947 ft | 270 kts | 329° |
| 2026-04-26 12:24 | -8.01984 | 109.94664 | 2956 ft | 252 kts | 330° |
| 2026-04-26 12:25 | -7.99094 | 109.92932 | 2967 ft | 241 kts | 330° |
| 2026-04-26 12:25 | -7.97654 | 109.92072 | 2966 ft | 242 kts | 330° |
| 2026-04-26 12:25 | -7.96182 | 109.91177 | 2968 ft | 246 kts | 330° |
| 2026-04-26 12:25 | -7.94719 | 109.90299 | 2966 ft | 244 kts | 330° |
| 2026-04-26 12:26 | -7.93238 | 109.89526 | 2756 ft | 235 kts | 342° |
| 2026-04-26 12:26 | -7.91759 | 109.89162 | 2488 ft | 208 kts | 349° |
| 2026-04-26 12:26 | -7.90449 | 109.88871 | 2277 ft | 179 kts | 348° |
| 2026-04-26 12:26 | -7.89309 | 109.88746 | 2079 ft | 156 kts | 8° |
| 2026-04-26 12:27 | -7.88312 | 109.89150 | 1932 ft | 156 kts | 36° |
| 2026-04-26 12:27 | -7.87586 | 109.89960 | 1851 ft | 160 kts | 53° |
| 2026-04-26 12:27 | -7.86932 | 109.90859 | 1715 ft | 157 kts | 52° |
| 2026-04-26 12:27 | -7.86271 | 109.91753 | 1564 ft | 158 kts | 52° |
| 2026-04-26 12:28 | -7.85850 | 109.92749 | 1465 ft | 151 kts | 87° |
| 2026-04-26 12:28 | -7.86116 | 109.93694 | 1491 ft | 142 kts | 113° |
| 2026-04-26 12:28 | -7.86479 | 109.94655 | 1464 ft | 145 kts | 109° |
| 2026-04-26 12:28 | -7.86827 | 109.95599 | 1458 ft | 145 kts | 109° |
| 2026-04-26 12:29 | -7.87175 | 109.96550 | 1454 ft | 145 kts | 109° |
| 2026-04-26 12:29 | -7.87526 | 109.97514 | 1402 ft | 149 kts | 109° |
| 2026-04-26 12:29 | -7.88224 | 109.99422 | 1066 ft | 142 kts | 108° |
| 2026-04-26 12:30 | -7.88565 | 110.00356 | 885 ft | 144 kts | 109° |
| 2026-04-26 12:30 | -7.88910 | 110.01299 | 688 ft | 143 kts | 109° |
| 2026-04-26 12:30 | -7.89250 | 110.02227 | 501 ft | 140 kts | 108° |
| 2026-04-26 12:31 | -7.89934 | 110.04099 | 124 ft | 143 kts | 109° |
| 2026-04-26 12:31 | -7.90275 | 110.05019 | 38 ft | 130 kts | 110° |
| 2026-04-26 12:31 | -7.90511 | 110.05684 | 29 ft | 61 kts | 111° |
| 2026-04-26 12:31 | -7.90603 | 110.05948 | 29 ft | 29 kts | 108° |
| 2026-04-26 12:32 | -7.90652 | 110.06107 | 29 ft | 21 kts | 99° |
| 2026-04-26 12:32 | -7.90656 | 110.06240 | 29 ft | 13 kts | 81° |
| 2026-04-26 12:32 | -7.90623 | 110.06441 | 29 ft | 14 kts | 69° |
| 2026-04-26 12:33 | -7.90590 | 110.06481 | 29 ft | 6 kts | 19° |
| 2026-04-26 12:33 | -7.90536 | 110.06500 | 29 ft | 10 kts | 20° |
| 2026-04-26 12:33 | -7.90461 | 110.06512 | 29 ft | 8 kts | 334° |
| 2026-04-26 12:33 | -7.90434 | 110.06465 | 29 ft | 9 kts | 289° |
| 2026-04-26 12:34 | -7.90400 | 110.06373 | 29 ft | 17 kts | 290° |
| 2026-04-26 12:34 | -7.90354 | 110.06249 | 29 ft | 20 kts | 291° |
| 2026-04-26 12:34 | -7.90308 | 110.06130 | 29 ft | 15 kts | 289° |
| 2026-04-26 12:34 | -7.90281 | 110.06042 | 29 ft | 11 kts | 286° |
| 2026-04-26 12:35 | -7.90252 | 110.05970 | 29 ft | 10 kts | 295° |
| 2026-04-26 12:35 | -7.90221 | 110.05906 | 29 ft | 9 kts | 293° |
| 2026-04-26 12:35 | -7.90204 | 110.05866 | 29 ft | 3 kts | 301° |
| 2026-04-26 12:35 | -7.90184 | 110.05857 | 29 ft | 4 kts | 4° |
| 2026-04-26 12:36 | -7.90149 | 110.05868 | 29 ft | 6 kts | 21° |
| 2026-04-26 12:36 | -7.90113 | 110.05883 | 29 ft | 3 kts | 21° |
| 2026-04-26 12:36 | -7.90108 | 110.05885 | 29 ft | 0 kts | 20° |